createdAt,value
2019-03-09T00:00:43.784Z,7.80
2019-03-09T00:03:14.510Z,7.70
2019-03-09T00:05:43.967Z,7.70
2019-03-09T00:08:14.850Z,7.70
2019-03-09T00:10:45.837Z,7.70
2019-03-09T00:13:15.287Z,7.70
2019-03-09T00:15:44.840Z,7.70
2019-03-09T00:18:15.101Z,7.70
2019-03-09T00:20:45.465Z,7.70
2019-03-09T00:23:38.162Z,7.70
2019-03-09T00:26:29.653Z,7.70
2019-03-09T00:29:04.575Z,7.60
2019-03-09T00:31:39.400Z,7.70
2019-03-09T00:34:08.685Z,7.70
2019-03-09T00:36:38.195Z,7.70
2019-03-09T00:39:08.732Z,7.70
2019-03-09T00:41:39.371Z,7.70
2019-03-09T00:44:38.532Z,7.70
2019-03-09T00:47:16.400Z,7.70
2019-03-09T00:49:47.951Z,7.70
2019-03-09T00:52:18.625Z,7.70
2019-03-09T00:54:49.133Z,7.70
2019-03-09T00:57:20.001Z,7.70
2019-03-09T00:59:58.593Z,7.80
2019-03-09T01:02:28.286Z,7.80
2019-03-09T01:05:02.486Z,7.80
2019-03-09T01:07:32.507Z,7.80
2019-03-09T01:10:02.964Z,7.80
2019-03-09T01:12:35.527Z,7.80
2019-03-09T01:15:05.610Z,7.80
2019-03-09T01:17:35.089Z,7.80
2019-03-09T01:20:05.730Z,7.80
2019-03-09T01:22:38.246Z,7.80
2019-03-09T01:25:07.805Z,7.80
2019-03-09T01:27:38.360Z,7.80
2019-03-09T01:30:10.980Z,7.80
2019-03-09T01:32:41.548Z,7.80
2019-03-09T01:35:18.939Z,7.90
2019-03-09T01:37:48.400Z,7.90
2019-03-09T01:40:17.866Z,7.90
2019-03-09T01:42:50.260Z,7.90
2019-03-09T01:45:19.852Z,7.90
2019-03-09T01:47:55.744Z,7.90
2019-03-09T01:50:26.146Z,7.90
2019-03-09T01:52:56.822Z,7.90
2019-03-09T01:55:26.282Z,7.90
2019-03-09T01:57:55.808Z,7.90
2019-03-09T02:00:25.360Z,7.90
2019-03-09T02:02:55.804Z,7.90
2019-03-09T02:05:38.657Z,8.00
2019-03-09T02:08:08.344Z,8.00
2019-03-09T02:10:39.003Z,8.00
2019-03-09T02:13:08.535Z,8.00
2019-03-09T02:15:44.027Z,8.00
2019-03-09T02:18:14.456Z,8.00
2019-03-09T02:20:44.168Z,8.00
2019-03-09T02:23:15.531Z,8.00
2019-03-09T02:25:46.022Z,8.10
2019-03-09T02:28:16.647Z,8.00
2019-03-09T02:30:48.089Z,8.10
2019-03-09T02:33:18.463Z,8.10
2019-03-09T02:35:49.181Z,8.10
2019-03-09T02:38:47.505Z,8.10
2019-03-09T02:41:19.136Z,8.10
2019-03-09T02:43:48.938Z,8.20
2019-03-09T02:46:18.241Z,8.20
2019-03-09T02:48:47.967Z,8.20
2019-03-09T02:51:19.292Z,8.20
2019-03-09T02:53:48.911Z,8.20
2019-03-09T02:56:18.557Z,8.20
2019-03-09T02:58:49.858Z,8.20
2019-03-09T03:01:34.677Z,8.20
2019-03-09T03:04:10.384Z,8.30
2019-03-09T03:06:39.876Z,8.30
2019-03-09T03:09:09.411Z,8.30
2019-03-09T03:11:38.707Z,8.30
2019-03-09T03:14:09.024Z,8.30
2019-03-09T03:16:45.793Z,8.30
2019-03-09T03:19:17.288Z,8.40
2019-03-09T03:21:47.799Z,8.40
2019-03-09T03:24:19.522Z,8.40
2019-03-09T03:26:50.099Z,8.40
2019-03-09T03:29:19.594Z,8.50
2019-03-09T03:31:49.224Z,8.40
2019-03-09T03:34:18.788Z,8.50
2019-03-09T03:36:48.144Z,8.50
2019-03-09T03:39:17.779Z,8.60
2019-03-09T03:41:47.104Z,8.60
2019-03-09T03:44:24.009Z,8.60
2019-03-09T03:46:56.444Z,8.60
2019-03-09T03:49:26.279Z,8.60
2019-03-09T03:51:57.282Z,8.70
2019-03-09T03:54:27.010Z,8.70
2019-03-09T03:57:00.969Z,8.70
2019-03-09T03:59:30.695Z,8.70
2019-03-09T04:02:00.397Z,8.80
2019-03-09T04:04:30.190Z,8.80
2019-03-09T04:07:01.000Z,8.80
2019-03-09T04:09:31.792Z,8.80
2019-03-09T04:12:01.437Z,8.80
2019-03-09T04:14:48.173Z,8.80
2019-03-09T04:17:20.916Z,8.90
2019-03-09T04:19:51.605Z,8.90
2019-03-09T04:22:21.189Z,8.90
2019-03-09T04:24:50.540Z,8.90
2019-03-09T04:27:20.090Z,8.80
2019-03-09T04:29:49.571Z,8.80
2019-03-09T04:32:21.308Z,8.80
2019-03-09T04:37:55.144Z,8.70
2019-03-09T04:40:24.959Z,8.70
2019-03-09T04:42:54.375Z,8.70
2019-03-09T04:45:24.593Z,8.70
2019-03-09T04:47:55.085Z,8.70
2019-03-09T04:50:25.278Z,8.70
2019-03-09T04:53:02.237Z,8.60
2019-03-09T04:55:33.069Z,8.60
2019-03-09T04:58:09.594Z,8.60
2019-03-09T05:00:44.449Z,8.70
2019-03-09T05:03:13.767Z,8.70
2019-03-09T05:05:43.301Z,8.70
2019-03-09T05:08:50.863Z,8.70
2019-03-09T05:11:24.198Z,8.60
2019-03-09T05:14:01.155Z,8.60
2019-03-09T05:16:30.365Z,8.60
2019-03-09T05:18:59.895Z,8.60
2019-03-09T05:21:35.244Z,8.60
2019-03-09T05:24:05.467Z,8.60
2019-03-09T05:26:36.641Z,8.60
2019-03-09T05:29:06.236Z,8.60
2019-03-09T05:31:35.672Z,8.60
2019-03-09T05:34:06.439Z,8.50
2019-03-09T05:36:35.927Z,8.60
2019-03-09T05:39:06.492Z,8.50
2019-03-09T05:41:36.884Z,8.50
2019-03-09T05:44:06.120Z,8.50
2019-03-09T05:46:35.584Z,8.50
2019-03-09T05:49:04.988Z,8.50
2019-03-09T05:51:34.572Z,8.60
2019-03-09T05:54:03.814Z,8.60
2019-03-09T05:56:33.120Z,8.60
2019-03-09T05:59:03.462Z,8.60
2019-03-09T06:01:33.022Z,8.60
2019-03-09T06:04:02.420Z,8.60
2019-03-09T06:06:31.984Z,8.60
2019-03-09T06:09:04.280Z,8.60
2019-03-09T06:11:33.990Z,8.60
2019-03-09T06:14:04.218Z,8.60
2019-03-09T06:16:33.777Z,8.60
2019-03-09T06:19:03.275Z,8.70
2019-03-09T06:21:32.685Z,8.60
2019-03-09T06:24:02.277Z,8.60
2019-03-09T06:26:31.686Z,8.60
2019-03-09T06:29:01.305Z,8.60
2019-03-09T06:31:30.836Z,8.60
2019-03-09T06:34:01.592Z,8.60
2019-03-09T06:36:59.075Z,8.70
2019-03-09T06:39:34.450Z,8.60
2019-03-09T06:42:27.574Z,8.60
2019-03-09T06:44:59.243Z,8.70
2019-03-09T06:47:28.846Z,8.70
2019-03-09T06:49:59.215Z,8.70
2019-03-09T06:52:28.700Z,8.70
2019-03-09T06:54:58.159Z,8.80
2019-03-09T06:57:27.695Z,8.80
2019-03-09T06:59:57.138Z,8.80
2019-03-09T07:02:26.755Z,8.90
2019-03-09T07:04:57.503Z,8.90
2019-03-09T07:07:28.137Z,8.90
2019-03-09T07:09:58.489Z,8.90
2019-03-09T07:12:27.996Z,9.00
2019-03-09T07:15:18.497Z,9.00
2019-03-09T07:17:48.731Z,9.00
2019-03-09T07:20:18.121Z,9.10
2019-03-09T07:22:50.091Z,9.10
2019-03-09T07:25:20.993Z,9.10
2019-03-09T07:28:05.532Z,9.10
2019-03-09T07:30:53.078Z,9.10
2019-03-09T07:33:28.889Z,9.10
2019-03-09T07:36:21.229Z,9.10
2019-03-09T07:38:52.034Z,9.20
2019-03-09T07:41:25.440Z,9.20
2019-03-09T07:44:00.063Z,9.20
2019-03-09T07:46:29.446Z,9.20
2019-03-09T07:48:59.817Z,9.30
2019-03-09T07:51:29.320Z,9.30
2019-03-09T07:53:58.760Z,9.30
2019-03-09T07:56:28.455Z,9.30
2019-03-09T07:58:57.828Z,9.40
2019-03-09T08:01:29.318Z,9.40
2019-03-09T08:04:00.870Z,9.40
2019-03-09T08:06:30.457Z,9.40
2019-03-09T08:08:59.950Z,9.50
2019-03-09T08:11:34.816Z,9.50
2019-03-09T08:14:27.836Z,9.50
2019-03-09T08:16:58.442Z,9.60
2019-03-09T08:19:27.924Z,9.60
2019-03-09T08:22:20.684Z,9.60
2019-03-09T08:24:52.563Z,9.60
2019-03-09T08:27:37.538Z,9.70
2019-03-09T08:34:20.290Z,9.70
2019-03-09T08:36:50.891Z,9.70
2019-03-09T08:39:47.701Z,9.80
2019-03-09T08:42:17.730Z,9.70
2019-03-09T08:45:24.130Z,9.80
2019-03-09T08:48:03.941Z,9.80
2019-03-09T08:50:35.682Z,9.80
2019-03-09T08:53:14.148Z,9.80
2019-03-09T08:55:43.757Z,9.80
2019-03-09T08:58:36.949Z,9.90
2019-03-09T09:01:08.420Z,10.00
2019-03-09T09:03:38.047Z,10.10
2019-03-09T09:06:08.331Z,10.10
2019-03-09T09:08:43.358Z,10.20
2019-03-09T09:11:12.775Z,10.20
2019-03-09T09:13:43.021Z,10.30
2019-03-09T09:16:12.534Z,10.30
2019-03-09T09:18:43.786Z,10.30
2019-03-09T09:21:14.493Z,10.30
2019-03-09T09:23:44.350Z,10.30
2019-03-09T09:26:14.620Z,10.30
2019-03-09T09:28:44.356Z,10.30
2019-03-09T09:31:13.688Z,10.40
2019-03-09T09:33:44.374Z,10.40
2019-03-09T09:36:14.606Z,10.40
2019-03-09T09:38:44.338Z,10.50
2019-03-09T09:41:13.818Z,10.40
2019-03-09T09:43:43.240Z,10.40
2019-03-09T09:46:12.814Z,10.40
2019-03-09T09:48:42.045Z,10.40
2019-03-09T09:51:11.348Z,10.30
2019-03-09T09:53:40.974Z,10.40
2019-03-09T09:56:10.310Z,10.40
2019-03-09T09:58:39.866Z,10.50
2019-03-09T10:01:09.408Z,10.60
2019-03-09T10:03:38.824Z,10.60
2019-03-09T10:06:08.359Z,10.70
2019-03-09T10:08:37.902Z,10.70
2019-03-09T10:11:07.346Z,10.80
2019-03-09T10:13:36.827Z,10.80
2019-03-09T10:16:06.474Z,10.90
2019-03-09T10:18:35.917Z,10.90
2019-03-09T10:21:05.452Z,11.00
2019-03-09T10:23:36.504Z,11.00
2019-03-09T10:26:08.103Z,11.00
2019-03-09T10:28:39.672Z,10.90
2019-03-09T10:31:09.315Z,11.00
2019-03-09T10:33:38.652Z,11.00
2019-03-09T10:36:08.779Z,11.00
2019-03-09T10:38:40.290Z,10.90
2019-03-09T10:41:09.639Z,10.90
2019-03-09T10:43:39.169Z,11.00
2019-03-09T10:46:08.841Z,11.20
2019-03-09T10:48:42.261Z,11.40
2019-03-09T10:51:12.637Z,11.40
2019-03-09T10:53:43.541Z,11.40
2019-03-09T10:56:14.902Z,11.50
2019-03-09T10:58:49.361Z,11.50
2019-03-09T11:01:19.006Z,11.70
2019-03-09T11:03:49.775Z,11.90
2019-03-09T11:06:23.548Z,12.00
2019-03-09T11:08:55.375Z,12.10
2019-03-09T11:11:25.238Z,12.20
2019-03-09T11:13:55.818Z,12.30
2019-03-09T11:16:26.621Z,12.30
2019-03-09T11:18:56.212Z,12.20
2019-03-09T11:21:25.512Z,12.20
2019-03-09T11:23:58.323Z,12.30
2019-03-09T11:26:27.775Z,12.30
2019-03-09T11:29:04.164Z,12.20
2019-03-09T11:31:38.898Z,12.20
2019-03-09T11:34:11.949Z,12.10
2019-03-09T11:37:09.668Z,12.10
2019-03-09T11:39:44.279Z,12.00
2019-03-09T11:42:16.675Z,12.00
2019-03-09T11:44:47.218Z,12.20
2019-03-09T11:47:21.780Z,12.20
2019-03-09T11:49:55.493Z,12.30
2019-03-09T11:52:30.786Z,12.40
2019-03-09T11:55:01.357Z,12.40
2019-03-09T11:57:31.504Z,12.40
2019-03-09T12:00:03.640Z,12.30
2019-03-09T12:02:48.509Z,12.30
2019-03-09T12:05:26.242Z,12.10
2019-03-09T12:08:32.970Z,11.90
2019-03-09T12:11:04.122Z,11.80
2019-03-09T12:13:38.281Z,11.70
2019-03-09T12:16:23.103Z,11.60
2019-03-09T12:19:03.263Z,11.50
2019-03-09T12:21:38.669Z,11.40
2019-03-09T12:24:19.899Z,11.50
2019-03-09T12:26:48.455Z,11.50
2019-03-09T12:29:17.739Z,11.40
2019-03-09T12:31:47.301Z,11.40
2019-03-09T12:34:16.744Z,11.40
2019-03-09T12:36:46.529Z,11.50
2019-03-09T12:39:15.847Z,11.50
2019-03-09T12:41:45.321Z,11.40
2019-03-09T12:44:14.809Z,11.40
2019-03-09T12:46:46.640Z,11.40
2019-03-09T12:49:17.078Z,11.40
2019-03-09T12:51:46.610Z,11.40
2019-03-09T12:54:16.193Z,11.30
2019-03-09T12:56:45.784Z,11.00
2019-03-09T12:59:15.134Z,10.80
2019-03-09T13:01:45.245Z,10.70
2019-03-09T13:04:14.626Z,10.60
2019-03-09T13:06:44.973Z,10.50
2019-03-09T13:09:15.213Z,10.50
2019-03-09T13:11:44.680Z,10.40
2019-03-09T13:14:15.073Z,10.30
2019-03-09T13:16:44.643Z,10.30
2019-03-09T13:19:14.018Z,10.40
2019-03-09T13:21:43.833Z,10.40
2019-03-09T13:24:14.273Z,10.50
2019-03-09T13:26:43.857Z,10.50
2019-03-09T13:29:13.447Z,10.40
2019-03-09T13:32:05.891Z,10.30
2019-03-09T13:34:35.649Z,10.20
2019-03-09T13:37:06.457Z,10.10
2019-03-09T13:39:36.239Z,10.00
2019-03-09T13:42:07.495Z,10.00
2019-03-09T13:44:37.777Z,10.20
2019-03-09T13:47:07.424Z,10.50
2019-03-09T13:49:36.891Z,10.70
2019-03-09T13:52:06.272Z,10.90
2019-03-09T13:54:35.831Z,11.00
2019-03-09T13:57:05.352Z,11.00
2019-03-09T13:59:34.790Z,11.00
2019-03-09T14:02:04.377Z,11.10
2019-03-09T14:04:34.716Z,11.10
2019-03-09T14:07:05.253Z,11.00
2019-03-09T14:09:34.660Z,11.00
2019-03-09T14:14:40.205Z,11.10
2019-03-09T14:17:09.592Z,11.10
2019-03-09T14:19:39.056Z,11.10
2019-03-09T14:22:08.623Z,11.10
2019-03-09T14:24:38.049Z,11.20
2019-03-09T14:27:07.554Z,11.20
2019-03-09T14:29:37.120Z,11.30
2019-03-09T14:32:06.572Z,11.40
2019-03-09T14:34:36.076Z,11.50
2019-03-09T14:37:05.794Z,11.80
2019-03-09T14:39:36.310Z,11.90
2019-03-09T14:42:05.877Z,11.80
2019-03-09T14:44:35.466Z,11.80
2019-03-09T14:47:05.634Z,11.80
2019-03-09T14:49:35.243Z,11.90
2019-03-09T14:52:06.438Z,12.10
2019-03-09T14:55:45.065Z,12.20
2019-03-09T14:58:39.550Z,12.20
2019-03-09T15:01:13.989Z,12.10
2019-03-09T15:03:45.123Z,12.00
2019-03-09T15:06:14.617Z,12.00
2019-03-09T15:08:44.177Z,12.00
2019-03-09T15:11:13.623Z,12.10
2019-03-09T15:13:43.147Z,12.10
2019-03-09T15:16:12.714Z,12.20
2019-03-09T15:18:42.945Z,12.10
2019-03-09T15:21:12.599Z,12.00
2019-03-09T15:23:42.017Z,12.00
2019-03-09T15:26:11.449Z,12.00
2019-03-09T15:28:40.971Z,11.90
2019-03-09T15:31:10.537Z,12.00
2019-03-09T15:33:40.786Z,12.00
2019-03-09T15:36:10.477Z,12.20
2019-03-09T15:38:39.855Z,12.20
2019-03-09T15:41:09.474Z,12.20
2019-03-09T15:43:38.953Z,12.20
2019-03-09T15:46:09.658Z,12.20
2019-03-09T15:48:39.094Z,12.20
2019-03-09T15:51:09.409Z,12.10
2019-03-09T15:53:41.341Z,12.10
2019-03-09T15:56:10.909Z,12.00
2019-03-09T15:58:41.535Z,11.90
2019-03-09T16:01:12.889Z,12.00
2019-03-09T16:03:43.022Z,11.90
2019-03-09T16:06:13.154Z,11.80
2019-03-09T16:08:42.753Z,11.60
2019-03-09T16:11:12.239Z,11.50
2019-03-09T16:13:41.594Z,11.50
2019-03-09T16:16:11.099Z,11.50
2019-03-09T16:18:40.589Z,11.50
2019-03-09T16:21:10.091Z,11.50
2019-03-09T16:23:39.648Z,11.50
2019-03-09T16:26:10.430Z,11.40
2019-03-09T16:28:39.794Z,11.40
2019-03-09T16:31:09.390Z,11.40
2019-03-09T16:33:38.950Z,11.30
2019-03-09T16:36:09.191Z,11.30
2019-03-09T16:38:39.541Z,11.20
2019-03-09T16:41:11.520Z,11.20
2019-03-09T16:43:41.964Z,11.10
2019-03-09T16:46:11.735Z,11.20
2019-03-09T16:48:41.151Z,11.20
2019-03-09T16:51:10.656Z,11.10
2019-03-09T16:53:43.497Z,11.10
2019-03-09T16:56:15.223Z,11.10
2019-03-09T16:58:47.657Z,11.10
2019-03-09T17:01:18.166Z,11.10
2019-03-09T17:03:48.566Z,11.00
2019-03-09T17:06:17.950Z,11.00
2019-03-09T17:08:47.815Z,11.00
2019-03-09T17:11:20.430Z,10.90
2019-03-09T17:13:49.732Z,10.90
2019-03-09T17:16:19.320Z,10.90
2019-03-09T17:18:48.585Z,10.80
2019-03-09T17:21:20.338Z,10.80
2019-03-09T17:23:49.853Z,10.70
2019-03-09T17:26:19.401Z,10.70
2019-03-09T17:28:51.011Z,10.70
2019-03-09T17:31:20.509Z,10.60
2019-03-09T17:33:49.868Z,10.60
2019-03-09T17:36:19.385Z,10.50
2019-03-09T17:38:48.955Z,10.50
2019-03-09T17:41:18.431Z,10.40
2019-03-09T17:43:47.931Z,10.50
2019-03-09T17:46:17.481Z,10.40
2019-03-09T17:48:47.755Z,10.30
2019-03-09T17:51:17.421Z,10.30
2019-03-09T17:53:46.826Z,10.20
2019-03-09T17:56:16.261Z,10.20
2019-03-09T17:58:45.917Z,10.20
2019-03-09T18:01:15.406Z,10.20
2019-03-09T18:03:44.760Z,10.00
2019-03-09T18:06:14.273Z,10.00
2019-03-09T18:08:43.833Z,9.90
2019-03-09T18:11:13.312Z,9.90
2019-03-09T18:13:42.810Z,9.90
2019-03-09T18:16:12.382Z,9.80
2019-03-09T18:18:41.798Z,9.80
2019-03-09T18:21:11.400Z,9.70
2019-03-09T18:23:42.284Z,9.70
2019-03-09T18:26:11.536Z,9.70
2019-03-09T18:28:41.906Z,9.60
2019-03-09T18:31:11.450Z,9.60
2019-03-09T18:33:41.057Z,9.70
2019-03-09T18:36:10.442Z,9.60
2019-03-09T18:38:39.990Z,9.60
2019-03-09T18:41:11.490Z,9.60
2019-03-09T18:43:41.282Z,9.70
2019-03-09T18:46:10.526Z,9.70
2019-03-09T18:48:40.055Z,9.70
2019-03-09T18:51:10.343Z,9.70
2019-03-09T18:53:41.858Z,9.70
2019-03-09T18:56:20.464Z,9.70
2019-03-09T18:58:50.101Z,9.60
2019-03-09T19:01:19.839Z,9.60
2019-03-09T19:03:49.458Z,9.60
2019-03-09T19:06:18.828Z,9.60
2019-03-09T19:08:48.308Z,9.60
2019-03-09T19:11:17.895Z,9.60
2019-03-09T19:13:48.362Z,9.60
2019-03-09T19:16:18.706Z,9.50
2019-03-09T19:18:55.584Z,9.40
2019-03-09T19:21:24.793Z,9.40
2019-03-09T19:23:54.113Z,9.30
2019-03-09T19:26:23.693Z,9.30
2019-03-09T19:28:53.089Z,9.30
2019-03-09T19:31:22.497Z,9.20
2019-03-09T19:33:52.145Z,9.20
2019-03-09T19:36:21.573Z,9.10
2019-03-09T19:38:51.956Z,9.10
2019-03-09T19:41:22.429Z,9.10
2019-03-09T19:43:52.083Z,9.00
2019-03-09T19:46:22.015Z,9.00
2019-03-09T19:48:51.600Z,9.00
2019-03-09T19:51:26.849Z,9.00
2019-03-09T19:54:21.075Z,8.90
2019-03-09T19:56:51.664Z,8.90
2019-03-09T19:59:21.111Z,8.90
2019-03-09T20:01:50.639Z,8.90
2019-03-09T20:04:20.478Z,8.80
2019-03-09T20:06:50.034Z,8.80
2019-03-09T20:09:19.586Z,8.80
2019-03-09T20:11:49.088Z,8.80
2019-03-09T20:14:18.596Z,8.80
2019-03-09T20:16:48.110Z,8.70
2019-03-09T20:19:17.618Z,8.70
2019-03-09T20:21:47.939Z,8.70
2019-03-09T20:24:17.528Z,8.70
2019-03-09T20:26:46.978Z,8.70
2019-03-09T20:29:17.270Z,8.70
2019-03-09T20:31:48.008Z,8.70
2019-03-09T20:34:17.654Z,8.70
2019-03-09T20:36:48.227Z,8.70
2019-03-09T20:39:18.557Z,8.60
2019-03-09T20:41:48.920Z,8.60
2019-03-09T20:44:18.396Z,8.60
2019-03-09T20:46:47.871Z,8.60
2019-03-09T20:49:21.499Z,8.60
2019-03-09T20:51:53.146Z,8.60
2019-03-09T20:54:22.593Z,8.60
2019-03-09T20:56:52.087Z,8.60
2019-03-09T20:59:21.527Z,8.60
2019-03-09T21:01:51.078Z,8.60
2019-03-09T21:04:21.222Z,8.60
2019-03-09T21:06:50.872Z,8.60
2019-03-09T21:09:20.503Z,8.60
2019-03-09T21:11:51.214Z,8.60
2019-03-09T21:14:20.742Z,8.60
2019-03-09T21:16:50.202Z,8.60
2019-03-09T21:19:19.694Z,8.60
2019-03-09T21:21:49.919Z,8.60
2019-03-09T21:24:19.174Z,8.60
2019-03-09T21:26:50.330Z,8.60
2019-03-09T21:29:19.704Z,8.60
2019-03-09T21:31:51.270Z,8.50
2019-03-09T21:34:20.838Z,8.50
2019-03-09T21:36:50.275Z,8.50
2019-03-09T21:39:20.803Z,8.50
2019-03-09T21:41:50.649Z,8.50
2019-03-09T21:44:21.563Z,8.50
2019-03-09T21:46:51.673Z,8.50
2019-03-09T21:49:22.058Z,8.50
2019-03-09T21:51:52.647Z,8.60
2019-03-09T21:54:22.170Z,8.60
2019-03-09T21:56:51.675Z,8.50
2019-03-09T21:59:21.169Z,8.60
2019-03-09T22:01:52.762Z,8.50
2019-03-09T22:04:22.286Z,8.50
2019-03-09T22:06:51.734Z,8.50
2019-03-09T22:09:21.256Z,8.40
2019-03-09T22:11:50.773Z,8.40
2019-03-09T22:14:20.272Z,8.40
2019-03-09T22:16:56.602Z,8.40
2019-03-09T22:19:20.943Z,8.40
2019-03-09T22:21:50.423Z,8.30
2019-03-09T22:24:19.967Z,8.30
2019-03-09T22:26:49.590Z,8.30
2019-03-09T22:29:19.040Z,8.30
2019-03-09T22:31:48.851Z,8.30
2019-03-09T22:34:18.394Z,8.30
2019-03-09T22:36:50.436Z,8.30
2019-03-09T22:39:19.882Z,8.30
2019-03-09T22:41:49.388Z,8.30
2019-03-09T22:44:19.734Z,8.30
2019-03-09T22:46:49.164Z,8.30
2019-03-09T22:49:18.793Z,8.20
2019-03-09T22:51:49.400Z,8.30
2019-03-09T22:54:18.904Z,8.20
2019-03-09T22:56:48.444Z,8.30
2019-03-09T22:59:18.949Z,8.30
2019-03-09T23:01:48.379Z,8.20
2019-03-09T23:04:17.874Z,8.20
2019-03-09T23:06:47.319Z,8.20
2019-03-09T23:09:18.802Z,8.20
2019-03-09T23:11:50.385Z,8.20
2019-03-09T23:14:20.710Z,8.20
2019-03-09T23:16:50.965Z,8.30
2019-03-09T23:19:20.593Z,8.30
2019-03-09T23:21:50.093Z,8.30
2019-03-09T23:24:21.671Z,8.30
2019-03-09T23:26:50.902Z,8.30
2019-03-09T23:29:20.169Z,8.30
2019-03-09T23:31:51.361Z,8.30
2019-03-09T23:34:20.883Z,8.30
2019-03-09T23:36:51.145Z,8.30
2019-03-09T23:39:20.633Z,8.30
2019-03-09T23:41:50.237Z,8.30
2019-03-09T23:44:19.657Z,8.30
2019-03-09T23:46:49.977Z,8.30
2019-03-09T23:49:19.611Z,8.30
2019-03-09T23:51:50.739Z,8.30
2019-03-09T23:54:20.124Z,8.30
2019-03-09T23:56:49.669Z,8.30
2019-03-09T23:59:19.326Z,8.30
